Pittsboro, NC (27312)

2:47 AM EST on November 23, 2014 (GMT -0500)
KNCPITTS5 | Change Station
CLOSE
Current Station
Personal Weather Station
Location: Sortova Farm, Pittsboro, NC
Elevation: 522 ft
Nearby Weather Stations

Elev 522 ft 35.80 °N, 79.23 °W | Updated 2 minutes ago

Overcast
Overcast
33.7 °F
Feels Like 34 °F
N
0.0
Wind Variable Wind from SSW
Gusts 0.0 mph

Today
High -- | Low -- °F
--% Chance of Precip.
Yesterday
High -- | Low -- °F
Precip. -- in
7:00 AM 5:05 PM
New Moon, 1% visible
Pressure 30.29 in
Visibility 10.0 miles
Clouds Mostly Cloudy 1200 ft
Windchill 34 °F
Dew Point 29 °F
Humidity 83%
Rainfall 0.00 in
Snow Depth Not available.
UV 0 out of 12
Pollen .10 out of 12
Air Quality Not available.
Flu Activity Not available.
METAR KTTA 230735Z AUTO 00000KT 10SM BKN012 01/00 A3029 RMK AO2 T00111002

More Conditions Fewer Conditions

Pressure 30.29 in
Visibility 10.0 miles
Clouds Mostly Cloudy 1200 ft
Windchill 34 °F
Dew Point 29 °F
Humidity 83%
Rainfall 0.00 in
Snow Depth Not available.
UV 0 out of 12
Pollen .10 out of 12
Air Quality Not available.
Flu Activity Not available.
METAR KTTA 230735Z AUTO 00000KT 10SM BKN012 01/00 A3029 RMK AO2 T00111002

More Conditions Fewer Conditions

10-Day Weather Forecast

Almanac

Astronomy

Nov. 23, 2014 Rise Set
Actual Time
Civil Twilight
Nautical Twilight
Astronomical Twilight
Moon
Length of Visible Light
Length of Day
Tomorrow will be .
, % of the Moon is Illuminated

Today's Extremes

State Highs State Lows

Community

WunderPhotos

Upload Photos

1,773,024 photos uploaded!

WunderBlogs® & News

Nearby

Air Quality

  Air Quality AQ Index Pollutant
Not available.

Snow Depth

Station Depth Elevation

Earthquake Activity

City Distance Mag. Time & Date
Minimum magnitude displayed is 2.5.

Coastal Water Temperatures

Place Temperature

Nearby Weather Stations